createdAt,value
2022-11-21T00:00:12.314Z,0
2022-11-21T00:01:12.227Z,0
2022-11-21T00:02:13.157Z,0
2022-11-21T00:03:13.439Z,0
2022-11-21T00:04:14.121Z,0
2022-11-21T00:05:14.605Z,0
2022-11-21T00:06:14.217Z,0
2022-11-21T00:07:15.812Z,0
2022-11-21T00:08:16.060Z,0
2022-11-21T00:09:15.971Z,0
2022-11-21T00:10:17.454Z,0
2022-11-21T00:11:17.670Z,0
2022-11-21T00:12:17.553Z,0
2022-11-21T00:13:18.476Z,0
2022-11-21T00:14:18.790Z,0
2022-11-21T00:15:19.699Z,0
2022-11-21T00:16:20.374Z,0
2022-11-21T00:17:21.034Z,0
2022-11-21T00:18:21.945Z,0
2022-11-21T00:19:21.857Z,0
2022-11-21T00:20:22.794Z,0
2022-11-21T00:21:23.139Z,0
2022-11-21T00:22:24.626Z,0
2022-11-21T00:23:25.240Z,0
2022-11-21T00:24:26.089Z,0
2022-11-21T00:25:26.191Z,0
2022-11-21T00:26:26.814Z,0
2022-11-21T00:27:27.549Z,0
2022-11-21T00:28:28.166Z,0
2022-11-21T00:29:28.483Z,0
2022-11-21T00:30:29.094Z,0
2022-11-21T00:31:30.307Z,0
2022-11-21T00:32:30.903Z,0
2022-11-21T00:33:31.520Z,0
2022-11-21T00:34:33.257Z,0
2022-11-21T00:35:33.443Z,0
2022-11-21T00:36:34.355Z,0
2022-11-21T00:37:34.477Z,0
2022-11-21T00:38:35.685Z,0
2022-11-21T00:39:36.300Z,0
2022-11-21T00:40:37.511Z,0
2022-11-21T00:41:38.422Z,0
2022-11-21T00:42:38.617Z,0
2022-11-21T00:43:38.227Z,0
2022-11-21T00:44:39.495Z,0
2022-11-21T00:45:40.387Z,0
2022-11-21T00:46:41.574Z,0
2022-11-21T00:47:41.833Z,0
2022-11-21T00:48:41.744Z,0
2022-11-21T00:49:42.358Z,0
2022-11-21T00:50:42.985Z,0
2022-11-21T00:51:43.880Z,0
2022-11-21T00:52:43.516Z,0
2022-11-21T00:53:44.996Z,0
2022-11-21T00:54:45.906Z,0
2022-11-21T00:55:45.814Z,0
2022-11-21T00:56:47.016Z,0
2022-11-21T00:57:47.293Z,0
2022-11-21T00:58:47.490Z,0
2022-11-21T00:59:48.127Z,0
2022-11-21T01:00:49.441Z,0
2022-11-21T01:01:49.749Z,0
2022-11-21T01:02:49.962Z,0
2022-11-21T01:03:50.876Z,0
2022-11-21T01:04:50.767Z,0
2022-11-21T01:05:51.654Z,0
2022-11-21T01:06:52.570Z,0
2022-11-21T01:07:54.069Z,0
2022-11-21T01:08:54.683Z,0
2022-11-21T01:09:55.165Z,0
2022-11-21T01:10:55.374Z,0
2022-11-21T01:11:55.285Z,0
2022-11-21T01:12:56.835Z,0
2022-11-21T01:13:56.827Z,0
2022-11-21T01:14:57.467Z,0
2022-11-21T01:15:58.374Z,0
2022-11-21T01:16:59.858Z,0
2022-11-21T01:17:59.600Z,0
2022-11-21T01:19:00.500Z,0
2022-11-21T01:20:01.128Z,0
2022-11-21T01:21:01.740Z,0
2022-11-21T01:22:02.926Z,0
2022-11-21T01:23:03.546Z,0
2022-11-21T01:24:04.436Z,0
2022-11-21T01:25:05.341Z,0
2022-11-21T01:26:05.529Z,0
2022-11-21T01:27:05.723Z,0
2022-11-21T01:28:07.069Z,0
2022-11-21T01:29:06.966Z,0
2022-11-21T01:30:07.567Z,0
2022-11-21T01:31:08.761Z,0
2022-11-21T01:32:09.969Z,0
2022-11-21T01:33:09.285Z,0
2022-11-21T01:34:10.194Z,0
2022-11-21T01:35:09.822Z,0
2022-11-21T01:36:10.727Z,0
2022-11-21T01:37:11.917Z,0
2022-11-21T01:38:12.934Z,0
2022-11-21T01:39:13.156Z,0
2022-11-21T01:40:13.086Z,0
2022-11-21T01:41:13.279Z,0
2022-11-21T01:42:14.203Z,0
2022-11-21T01:43:14.474Z,0
2022-11-21T01:44:14.083Z,0
2022-11-21T01:45:14.999Z,0
2022-11-21T01:46:15.899Z,0
2022-11-21T01:47:16.519Z,0
2022-11-21T01:48:16.930Z,0
2022-11-21T01:49:17.536Z,0
2022-11-21T01:50:24.218Z,0
2022-11-21T01:51:18.406Z,0
2022-11-21T01:52:18.736Z,0
2022-11-21T01:53:19.647Z,0
2022-11-21T01:54:20.563Z,0
2022-11-21T01:55:20.911Z,0
2022-11-21T01:56:21.250Z,0
2022-11-21T01:57:22.167Z,0
2022-11-21T01:58:23.816Z,0
2022-11-21T01:59:24.302Z,0
2022-11-21T02:00:24.218Z,0
2022-11-21T02:01:25.088Z,0
2022-11-21T02:02:25.209Z,0
2022-11-21T02:03:26.407Z,0
2022-11-21T02:04:26.893Z,0
2022-11-21T02:05:26.608Z,0
2022-11-21T02:06:27.529Z,0
2022-11-21T02:07:28.614Z,0
2022-11-21T02:08:29.142Z,0
2022-11-21T02:09:29.772Z,0
2022-11-21T02:10:30.683Z,0
2022-11-21T02:11:32.274Z,0
2022-11-21T02:12:32.996Z,0
2022-11-21T02:13:32.988Z,0
2022-11-21T02:14:33.869Z,0
2022-11-21T02:15:34.356Z,0
2022-11-21T02:16:34.263Z,0
2022-11-21T02:17:34.594Z,0
2022-11-21T02:18:34.722Z,0
2022-11-21T02:19:35.628Z,0
2022-11-21T02:20:36.830Z,0
2022-11-21T02:21:37.735Z,0
2022-11-21T02:22:38.215Z,0
2022-11-21T02:23:38.705Z,0
2022-11-21T02:24:39.595Z,0
2022-11-21T02:25:40.252Z,0
2022-11-21T02:26:40.438Z,0
2022-11-21T02:27:40.757Z,0
2022-11-21T02:28:41.816Z,0
2022-11-21T02:29:42.312Z,0
2022-11-21T02:30:42.797Z,0
2022-11-21T02:31:43.032Z,0
2022-11-21T02:32:43.941Z,0
2022-11-21T02:33:43.859Z,0
2022-11-21T02:34:45.061Z,0
2022-11-21T02:35:45.264Z,0
2022-11-21T02:36:45.590Z,0
2022-11-21T02:37:46.802Z,0
2022-11-21T02:38:47.260Z,0
2022-11-21T02:39:48.176Z,0
2022-11-21T02:40:49.095Z,0
2022-11-21T02:41:49.725Z,0
2022-11-21T02:42:58.250Z,0
2022-11-21T02:43:50.788Z,0
2022-11-21T02:44:51.275Z,0
2022-11-21T02:45:51.460Z,0
2022-11-21T02:46:51.653Z,0
2022-11-21T02:47:52.288Z,0
2022-11-21T02:48:53.165Z,0
2022-11-21T02:49:52.802Z,0
2022-11-21T02:50:53.985Z,0
2022-11-21T02:51:55.183Z,0
2022-11-21T02:52:55.496Z,0
2022-11-21T02:53:56.131Z,0
2022-11-21T02:54:56.170Z,0
2022-11-21T02:55:57.573Z,0
2022-11-21T02:56:57.902Z,0
2022-11-21T02:58:01.665Z,0
2022-11-21T02:58:59.014Z,0
2022-11-21T02:59:58.937Z,0
2022-11-21T03:01:00.617Z,0
2022-11-21T03:02:00.962Z,0
2022-11-21T03:03:01.845Z,0
2022-11-21T03:04:03.047Z,0
2022-11-21T03:05:02.953Z,0
2022-11-21T03:06:03.265Z,0
2022-11-21T03:07:04.831Z,0
2022-11-21T03:08:04.573Z,0
2022-11-21T03:09:04.683Z,0
2022-11-21T03:10:05.626Z,0
2022-11-21T03:11:06.110Z,0
2022-11-21T03:12:06.042Z,0
2022-11-21T03:13:06.969Z,0
2022-11-21T03:14:07.518Z,0
2022-11-21T03:15:07.812Z,0
2022-11-21T03:16:08.705Z,0
2022-11-21T03:17:09.055Z,0
2022-11-21T03:18:09.382Z,0
2022-11-21T03:19:09.842Z,0
2022-11-21T03:20:10.757Z,0
2022-11-21T03:21:11.652Z,0
2022-11-21T03:22:12.839Z,0
2022-11-21T03:23:12.799Z,0
2022-11-21T03:24:13.727Z,0
2022-11-21T03:25:14.337Z,0
2022-11-21T03:26:14.232Z,0
2022-11-21T03:27:14.864Z,0
2022-11-21T03:28:15.473Z,0
2022-11-21T03:29:16.539Z,0
2022-11-21T03:30:16.445Z,0
2022-11-21T03:31:17.935Z,0
2022-11-21T03:32:18.416Z,0
2022-11-21T03:33:18.326Z,0
2022-11-21T03:34:19.513Z,0
2022-11-21T03:35:19.648Z,0
2022-11-21T03:36:20.585Z,0
2022-11-21T03:37:21.218Z,0
2022-11-21T03:38:22.128Z,0
2022-11-21T03:39:22.920Z,0
2022-11-21T03:40:22.825Z,0
2022-11-21T03:41:23.432Z,0
2022-11-21T03:42:23.767Z,0
2022-11-21T03:43:24.971Z,0
2022-11-21T03:44:25.963Z,0
2022-11-21T03:45:25.728Z,0
2022-11-21T03:46:25.618Z,0
2022-11-21T03:47:25.530Z,0
2022-11-21T03:48:26.713Z,0
2022-11-21T03:49:26.687Z,0
2022-11-21T03:50:27.305Z,0
2022-11-21T03:51:29.214Z,0
2022-11-21T03:52:29.822Z,0
2022-11-21T03:53:30.705Z,0
2022-11-21T03:54:31.216Z,0
2022-11-21T03:55:30.929Z,0
2022-11-21T03:56:31.242Z,0
2022-11-21T03:57:32.283Z,0
2022-11-21T03:58:33.482Z,0
2022-11-21T03:59:33.860Z,0
2022-11-21T04:00:34.155Z,0
2022-11-21T04:01:42.424Z,0
2022-11-21T04:02:34.442Z,0
2022-11-21T04:03:34.065Z,0
2022-11-21T04:04:35.449Z,0
2022-11-21T04:05:35.379Z,0
2022-11-21T04:06:35.586Z,0
2022-11-21T04:07:37.163Z,0
2022-11-21T04:08:37.249Z,0
2022-11-21T04:09:37.976Z,0
2022-11-21T04:10:38.165Z,0
2022-11-21T04:11:39.341Z,0
2022-11-21T04:12:39.827Z,0
2022-11-21T04:13:39.874Z,0
2022-11-21T04:14:41.601Z,0
2022-11-21T04:15:41.628Z,0
2022-11-21T04:16:42.539Z,0
2022-11-21T04:17:43.150Z,0
2022-11-21T04:18:43.791Z,0
2022-11-21T04:19:44.379Z,0
2022-11-21T04:20:44.270Z,0
2022-11-21T04:21:45.196Z,0
2022-11-21T04:22:45.811Z,0
2022-11-21T04:23:46.740Z,0
2022-11-21T04:24:47.933Z,0
2022-11-21T04:25:47.839Z,0
2022-11-21T04:26:48.155Z,0
2022-11-21T04:27:48.783Z,0
2022-11-21T04:28:49.121Z,0
2022-11-21T04:29:50.447Z,0
2022-11-21T04:30:53.440Z,0
2022-11-21T04:31:51.873Z,0
2022-11-21T04:32:52.059Z,0
2022-11-21T04:33:52.972Z,0
2022-11-21T04:34:52.891Z,0
2022-11-21T04:35:53.204Z,0
2022-11-21T04:36:54.375Z,0
2022-11-21T04:37:54.388Z,0
2022-11-21T04:38:55.041Z,0
2022-11-21T04:39:56.335Z,0
2022-11-21T04:40:56.545Z,0
2022-11-21T04:41:57.454Z,0
2022-11-21T04:42:57.664Z,0
2022-11-21T04:43:58.621Z,0
2022-11-21T04:44:59.595Z,0
2022-11-21T04:45:59.807Z,0
2022-11-21T04:47:04.996Z,0
2022-11-21T04:48:00.593Z,0
2022-11-21T04:49:01.801Z,0
2022-11-21T04:50:01.782Z,0
2022-11-21T04:51:02.684Z,0
2022-11-21T04:52:03.593Z,0
2022-11-21T04:53:03.783Z,0
2022-11-21T04:54:04.414Z,0
2022-11-21T04:55:05.032Z,0
2022-11-21T04:56:05.664Z,0
2022-11-21T04:57:06.298Z,0
2022-11-21T04:58:07.189Z,0
2022-11-21T04:59:07.527Z,0
2022-11-21T05:00:09.185Z,0
2022-11-21T05:01:09.573Z,0
2022-11-21T05:02:10.250Z,0
2022-11-21T05:03:11.136Z,0
2022-11-21T05:04:12.026Z,0
2022-11-21T05:05:12.362Z,0
2022-11-21T05:06:13.255Z,0
2022-11-21T05:07:13.066Z,0
2022-11-21T05:08:14.091Z,0
2022-11-21T05:09:15.302Z,0
2022-11-21T05:10:15.017Z,0
2022-11-21T05:11:16.500Z,0
2022-11-21T05:12:16.687Z,0
2022-11-21T05:13:17.306Z,0
2022-11-21T05:14:18.191Z,0
2022-11-21T05:15:24.347Z,0
2022-11-21T05:16:19.655Z,0
2022-11-21T05:17:20.562Z,0
2022-11-21T05:18:20.884Z,0
2022-11-21T05:19:21.482Z,0
2022-11-21T05:20:22.200Z,0
2022-11-21T05:21:23.116Z,0
2022-11-21T05:22:23.732Z,0
2022-11-21T05:23:23.764Z,0
2022-11-21T05:24:25.105Z,0
2022-11-21T05:25:25.619Z,0
2022-11-21T05:26:26.105Z,0
2022-11-21T05:27:26.589Z,0
2022-11-21T05:28:26.499Z,0
2022-11-21T05:29:33.580Z,0
2022-11-21T05:30:28.638Z,0
2022-11-21T05:31:28.876Z,0
2022-11-21T05:32:30.079Z,0
2022-11-21T05:33:30.270Z,0
2022-11-21T05:34:30.736Z,0
2022-11-21T05:35:31.045Z,0
2022-11-21T05:36:31.151Z,0
2022-11-21T05:37:31.783Z,0
2022-11-21T05:38:32.700Z,0
2022-11-21T05:39:33.352Z,0
2022-11-21T05:40:34.659Z,0
2022-11-21T05:41:35.585Z,0
2022-11-21T05:42:36.199Z,0
2022-11-21T05:43:37.108Z,0
2022-11-21T05:44:37.264Z,0
2022-11-21T05:45:38.521Z,0
2022-11-21T05:46:38.156Z,0
2022-11-21T05:47:40.072Z,0
2022-11-21T05:48:40.277Z,0
2022-11-21T05:49:41.482Z,0
2022-11-21T05:50:41.870Z,0
2022-11-21T05:51:42.803Z,0
2022-11-21T05:52:43.712Z,0
2022-11-21T05:53:43.747Z,0
2022-11-21T05:54:51.365Z,0
2022-11-21T05:55:45.555Z,0
2022-11-21T05:56:45.598Z,0
2022-11-21T05:57:46.797Z,0
2022-11-21T05:58:47.711Z,0
2022-11-21T05:59:48.194Z,0
2022-11-21T06:00:48.843Z,0
2022-11-21T06:01:49.286Z,0
2022-11-21T06:02:50.355Z,0
2022-11-21T06:03:50.481Z,0
2022-11-21T06:04:51.116Z,0
2022-11-21T06:05:52.300Z,0
2022-11-21T06:06:52.487Z,0
2022-11-21T06:07:52.388Z,0
2022-11-21T06:08:53.023Z,0
2022-11-21T06:09:52.942Z,0
2022-11-21T06:10:53.934Z,0
2022-11-21T06:11:54.835Z,0
2022-11-21T06:12:55.161Z,0
2022-11-21T06:13:56.068Z,0
2022-11-21T06:14:56.406Z,0
2022-11-21T06:15:57.950Z,0
2022-11-21T06:16:58.433Z,0
2022-11-21T06:17:58.039Z,4
2022-11-21T06:19:04.486Z,4
2022-11-21T06:19:59.987Z,4
2022-11-21T06:20:59.715Z,0
2022-11-21T06:22:00.369Z,0
2022-11-21T06:23:00.780Z,0
2022-11-21T06:24:01.085Z,4
2022-11-21T06:25:01.701Z,4
2022-11-21T06:26:02.615Z,4
2022-11-21T06:27:03.533Z,8
2022-11-21T06:28:04.150Z,4
2022-11-21T06:29:05.336Z,4
2022-11-21T06:30:06.259Z,4
2022-11-21T06:31:06.942Z,4
2022-11-21T06:32:07.136Z,12
2022-11-21T06:33:08.340Z,12
2022-11-21T06:34:07.962Z,12
2022-11-21T06:35:08.581Z,16
2022-11-21T06:36:09.217Z,16
2022-11-21T06:37:10.169Z,16
2022-11-21T06:38:10.052Z,16
2022-11-21T06:39:10.387Z,20
2022-11-21T06:40:11.589Z,20
2022-11-21T06:41:11.613Z,20
2022-11-21T06:42:12.251Z,20
2022-11-21T06:43:13.165Z,20
2022-11-21T06:44:13.362Z,20
2022-11-21T06:45:13.728Z,32
2022-11-21T06:46:14.975Z,40
2022-11-21T06:47:15.168Z,44
2022-11-21T06:48:15.056Z,52
2022-11-21T06:49:15.974Z,56
2022-11-21T06:50:16.295Z,56
2022-11-21T06:51:16.991Z,60
2022-11-21T06:52:17.903Z,64
2022-11-21T06:53:17.802Z,88
2022-11-21T06:54:22.862Z,96
2022-11-21T06:55:20.041Z,84
2022-11-21T06:56:20.927Z,72
2022-11-21T06:57:21.137Z,64
2022-11-21T06:58:21.773Z,64
2022-11-21T06:59:22.683Z,72
2022-11-21T07:00:22.727Z,72
2022-11-21T07:01:23.830Z,60
2022-11-21T07:02:24.499Z,72
2022-11-21T07:03:24.687Z,84
2022-11-21T07:04:24.969Z,80
2022-11-21T07:05:25.802Z,76
2022-11-21T07:06:25.440Z,88
2022-11-21T07:07:26.221Z,100
2022-11-21T07:08:27.526Z,108
2022-11-21T07:09:44.298Z,100
2022-11-21T07:10:29.044Z,84
2022-11-21T07:11:37.538Z,92
2022-11-21T07:12:37.874Z,96
2022-11-21T07:13:39.083Z,88
2022-11-21T07:14:38.991Z,84
2022-11-21T07:15:39.619Z,88
2022-11-21T07:16:40.904Z,80
2022-11-21T07:17:40.623Z,72
2022-11-21T07:18:41.562Z,64
2022-11-21T07:19:46.804Z,64
2022-11-21T07:20:42.724Z,60
2022-11-21T07:21:43.414Z,52
2022-11-21T07:22:44.049Z,56
2022-11-21T07:23:43.971Z,48
2022-11-21T07:24:44.882Z,48
2022-11-21T07:25:47.791Z,40
2022-11-21T07:26:45.683Z,36
2022-11-21T07:27:47.026Z,36
2022-11-21T07:28:47.909Z,48
2022-11-21T07:29:48.392Z,52
2022-11-21T07:30:48.304Z,48
2022-11-21T07:31:49.350Z,48
2022-11-21T07:32:49.833Z,48
2022-11-21T07:33:49.568Z,44
2022-11-21T07:34:49.911Z,52
2022-11-21T07:35:49.954Z,44
2022-11-21T07:36:50.868Z,40
2022-11-21T07:37:51.758Z,36
2022-11-21T07:38:52.956Z,36
2022-11-21T07:39:52.587Z,36
2022-11-21T07:40:53.519Z,40
2022-11-21T07:41:53.521Z,52
2022-11-21T07:42:54.147Z,60
2022-11-21T07:43:55.353Z,68
2022-11-21T07:44:55.565Z,64
2022-11-21T07:45:56.513Z,64
2022-11-21T07:46:57.503Z,64
2022-11-21T07:47:57.999Z,84
2022-11-21T07:49:02.051Z,96
2022-11-21T07:49:59.015Z,120
2022-11-21T07:50:59.595Z,152
2022-11-21T07:51:59.580Z,172
2022-11-21T07:53:00.218Z,188
2022-11-21T07:54:01.148Z,188
2022-11-21T07:55:02.077Z,220
2022-11-21T07:56:01.990Z,204
2022-11-21T07:57:02.625Z,168
2022-11-21T07:58:04.113Z,136
2022-11-21T07:59:04.599Z,120
2022-11-21T08:00:04.513Z,132
2022-11-21T08:01:05.008Z,144
2022-11-21T08:02:06.386Z,124
2022-11-21T08:03:07.041Z,76
2022-11-21T08:04:07.795Z,72
2022-11-21T08:05:07.427Z,100
2022-11-21T08:06:08.623Z,100
2022-11-21T08:07:09.351Z,92
2022-11-21T08:08:09.632Z,108
2022-11-21T08:09:10.187Z,128
2022-11-21T08:10:10.140Z,148
2022-11-21T08:11:11.352Z,196
2022-11-21T08:12:12.375Z,256
2022-11-21T08:13:12.860Z,320
2022-11-21T08:14:12.783Z,392
2022-11-21T08:15:13.997Z,448
2022-11-21T08:16:14.950Z,396
2022-11-21T08:17:15.691Z,360
2022-11-21T08:18:15.737Z,316
2022-11-21T08:19:16.931Z,292
2022-11-21T08:20:16.884Z,304
2022-11-21T08:21:25.619Z,348
2022-11-21T08:22:18.371Z,364
2022-11-21T08:23:19.298Z,380
2022-11-21T08:24:19.493Z,432
2022-11-21T08:25:20.407Z,400
2022-11-21T08:26:20.609Z,380
2022-11-21T08:27:21.206Z,392
2022-11-21T08:28:21.386Z,448
2022-11-21T08:29:21.441Z,516
2022-11-21T08:30:22.484Z,600
2022-11-21T08:31:22.238Z,600
2022-11-21T08:32:23.601Z,448
2022-11-21T08:33:24.116Z,372
2022-11-21T08:34:25.826Z,324
2022-11-21T08:35:25.312Z,280
2022-11-21T08:36:25.222Z,248
2022-11-21T08:37:26.196Z,240
2022-11-21T08:38:26.813Z,240
2022-11-21T08:39:27.994Z,240
2022-11-21T08:40:27.759Z,256
2022-11-21T08:41:29.450Z,308
2022-11-21T08:42:30.092Z,352
2022-11-21T08:43:29.997Z,424
2022-11-21T08:44:30.990Z,504
2022-11-21T08:45:31.068Z,580
2022-11-21T08:46:32.010Z,600
2022-11-21T08:47:32.302Z,540
2022-11-21T08:48:32.212Z,468
2022-11-21T08:49:33.739Z,452
2022-11-21T08:50:33.695Z,460
2022-11-21T08:51:35.474Z,460
2022-11-21T08:52:35.890Z,440
2022-11-21T08:53:36.227Z,372
2022-11-21T08:54:37.595Z,336
2022-11-21T08:55:36.953Z,344
2022-11-21T08:56:37.922Z,340
2022-11-21T08:57:38.951Z,304
2022-11-21T08:58:39.526Z,260
2022-11-21T08:59:39.745Z,236
2022-11-21T09:00:39.966Z,200
2022-11-21T09:01:40.436Z,188
2022-11-21T09:02:41.513Z,168
2022-11-21T09:03:42.746Z,164
2022-11-21T09:04:42.549Z,176
2022-11-21T09:05:42.225Z,208
2022-11-21T09:06:42.632Z,316
2022-11-21T09:07:43.909Z,516
2022-11-21T09:08:44.247Z,580
2022-11-21T09:09:45.464Z,480
2022-11-21T09:10:45.359Z,392
2022-11-21T09:11:46.280Z,384
2022-11-21T09:12:46.566Z,432
2022-11-21T09:13:47.048Z,484
2022-11-21T09:14:47.403Z,532
2022-11-21T09:15:48.605Z,512
2022-11-21T09:16:49.516Z,416
2022-11-21T09:17:50.839Z,344
2022-11-21T09:18:52.231Z,332
2022-11-21T09:19:52.502Z,424
2022-11-21T09:20:52.017Z,496
2022-11-21T09:21:52.939Z,404
2022-11-21T09:22:53.575Z,448
2022-11-21T09:23:53.765Z,460
2022-11-21T09:24:54.977Z,404
2022-11-21T09:25:54.616Z,332
2022-11-21T09:26:55.570Z,268
2022-11-21T09:27:58.185Z,212
2022-11-21T09:28:58.281Z,184
2022-11-21T09:30:05.074Z,184
2022-11-21T09:30:59.092Z,172
2022-11-21T09:31:58.400Z,136
2022-11-21T09:32:59.163Z,128
2022-11-21T09:34:05.782Z,120
2022-11-21T09:34:59.705Z,108
2022-11-21T09:36:00.636Z,128
2022-11-21T09:37:00.824Z,200
2022-11-21T09:38:02.021Z,236
2022-11-21T09:39:02.652Z,252
2022-11-21T09:40:03.311Z,184
2022-11-21T09:41:03.629Z,132
2022-11-21T09:42:04.543Z,128
2022-11-21T09:43:04.561Z,160
2022-11-21T09:44:07.307Z,184
2022-11-21T09:45:06.802Z,212
2022-11-21T09:46:06.724Z,268
2022-11-21T09:47:06.339Z,340
2022-11-21T09:48:07.627Z,356
2022-11-21T09:49:07.901Z,332
2022-11-21T09:50:08.508Z,272
2022-11-21T09:51:10.062Z,264
2022-11-21T09:52:10.280Z,384
2022-11-21T09:53:11.387Z,444
2022-11-21T09:54:11.391Z,508
2022-11-21T09:55:12.429Z,488
2022-11-21T09:56:12.938Z,380
2022-11-21T09:57:13.869Z,308
2022-11-21T09:58:14.334Z,296
2022-11-21T09:59:15.283Z,332
2022-11-21T10:00:15.790Z,368
2022-11-21T10:01:17.161Z,400
2022-11-21T10:02:16.859Z,348
2022-11-21T10:03:22.098Z,416
2022-11-21T10:04:17.621Z,496
2022-11-21T10:05:17.820Z,620
2022-11-21T10:06:18.482Z,784
2022-11-21T10:07:18.663Z,884
2022-11-21T10:08:19.380Z,932
2022-11-21T10:09:19.595Z,1592
2022-11-21T10:10:20.012Z,1240
2022-11-21T10:11:29.973Z,1184
2022-11-21T10:12:19.897Z,1360
2022-11-21T10:13:20.932Z,1612
2022-11-21T10:14:21.434Z,2504
2022-11-21T10:15:22.121Z,6276
2022-11-21T10:16:22.450Z,9792
2022-11-21T10:17:22.808Z,11420
2022-11-21T10:18:24.163Z,12176
2022-11-21T10:19:24.484Z,12256
2022-11-21T10:20:25.555Z,12040
2022-11-21T10:21:26.480Z,12952
2022-11-21T10:22:27.145Z,13300
2022-11-21T10:23:27.852Z,11920
2022-11-21T10:24:28.983Z,10924
2022-11-21T10:25:35.433Z,9696
2022-11-21T10:26:29.660Z,3096
2022-11-21T10:27:29.590Z,12004
2022-11-21T10:28:30.822Z,9620
2022-11-21T10:29:30.740Z,10688
2022-11-21T10:30:32.045Z,11032
2022-11-21T10:31:32.284Z,3772
2022-11-21T10:32:33.225Z,1960
2022-11-21T10:33:34.331Z,1548
2022-11-21T10:34:35.058Z,1268
2022-11-21T10:35:35.399Z,1088
2022-11-21T10:36:36.300Z,980
2022-11-21T10:37:37.509Z,1056
2022-11-21T10:38:37.434Z,1228
2022-11-21T10:39:38.929Z,2604
2022-11-21T10:40:39.144Z,5308
2022-11-21T10:41:39.064Z,7744
2022-11-21T10:42:40.255Z,8616
2022-11-21T10:43:40.570Z,9304
2022-11-21T10:44:41.250Z,4520
2022-11-21T10:45:41.018Z,2112
2022-11-21T10:46:42.513Z,2288
2022-11-21T10:47:42.747Z,2564
2022-11-21T10:48:43.346Z,2484
2022-11-21T10:49:43.572Z,4460
2022-11-21T10:50:44.509Z,2276
2022-11-21T10:51:47.030Z,2496
2022-11-21T10:52:46.038Z,1600
2022-11-21T10:53:47.201Z,1396
2022-11-21T10:54:47.423Z,1252
2022-11-21T10:55:47.674Z,1196
2022-11-21T10:56:48.881Z,1120
2022-11-21T10:57:49.134Z,1116
2022-11-21T10:58:49.087Z,1120
2022-11-21T10:59:50.573Z,1120
2022-11-21T11:00:51.030Z,1156
2022-11-21T11:01:51.421Z,1032
2022-11-21T11:02:52.790Z,920
2022-11-21T11:04:37.839Z,840
2022-11-21T11:05:04.316Z,852
2022-11-21T11:06:04.523Z,848
2022-11-21T11:07:06.314Z,884
2022-11-21T11:08:06.601Z,992
2022-11-21T11:09:07.101Z,1156
2022-11-21T11:10:07.599Z,1328
2022-11-21T11:11:07.446Z,1416
2022-11-21T11:12:07.665Z,1428
2022-11-21T11:13:46.184Z,1516
2022-11-21T11:14:36.367Z,1456
2022-11-21T11:15:36.577Z,1480
2022-11-21T11:16:41.352Z,1300
2022-11-21T11:17:38.077Z,1048
2022-11-21T11:18:37.712Z,928
2022-11-21T11:19:50.707Z,960
2022-11-21T11:20:39.037Z,920
2022-11-21T11:21:39.228Z,992
2022-11-21T11:22:39.724Z,1404
2022-11-21T11:23:39.657Z,2116
2022-11-21T11:24:39.698Z,2148
2022-11-21T11:25:40.034Z,2720
2022-11-21T11:26:40.957Z,3468
2022-11-21T11:27:42.184Z,3740
2022-11-21T11:28:42.375Z,3516
2022-11-21T11:29:43.161Z,4416
2022-11-21T11:30:43.401Z,5344
2022-11-21T11:31:43.325Z,2924
2022-11-21T11:32:43.972Z,3076
2022-11-21T11:33:44.195Z,3780
2022-11-21T11:34:44.777Z,4088
2022-11-21T11:35:47.059Z,4572
2022-11-21T11:36:47.135Z,4444
2022-11-21T11:37:52.772Z,2192
2022-11-21T11:38:47.966Z,1876
2022-11-21T11:39:48.089Z,2972
2022-11-21T11:40:48.424Z,2452
2022-11-21T11:41:48.646Z,1816
2022-11-21T11:42:48.557Z,1908
2022-11-21T11:43:49.796Z,2396
2022-11-21T11:44:50.781Z,2440
2022-11-21T11:45:50.980Z,2292
2022-11-21T11:46:52.599Z,2192
2022-11-21T11:48:00.219Z,2260
2022-11-21T11:49:28.236Z,3064
2022-11-21T11:49:53.938Z,2848
2022-11-21T11:50:52.914Z,2720
2022-11-21T11:51:53.424Z,3304
2022-11-21T11:52:53.926Z,2984
2022-11-21T11:53:59.936Z,3096
2022-11-21T11:54:54.423Z,4580
2022-11-21T11:55:54.776Z,4548
2022-11-21T11:56:55.707Z,6328
2022-11-21T11:57:55.627Z,6552
2022-11-21T11:58:56.840Z,8812
2022-11-21T11:59:57.855Z,8956
2022-11-21T12:00:58.966Z,8540
2022-11-21T12:01:57.936Z,8412
2022-11-21T12:02:58.440Z,8172
2022-11-21T12:04:03.921Z,6896
2022-11-21T12:04:59.240Z,4004
2022-11-21T12:06:01.625Z,4296
2022-11-21T12:08:48.386Z,9112
2022-11-21T12:09:06.127Z,9132
2022-11-21T12:10:06.161Z,9048
2022-11-21T12:11:07.074Z,8752
2022-11-21T12:12:07.017Z,8616
2022-11-21T12:13:08.217Z,5600
2022-11-21T12:14:09.151Z,4028
2022-11-21T12:15:09.652Z,2464
2022-11-21T12:16:19.618Z,1956
2022-11-21T12:17:10.301Z,1760
2022-11-21T12:18:11.239Z,1664
2022-11-21T12:19:11.606Z,1604
2022-11-21T12:20:12.544Z,1624
2022-11-21T12:21:13.226Z,1752
2022-11-21T12:22:13.737Z,3136
2022-11-21T12:23:13.944Z,4608
2022-11-21T12:24:14.643Z,2564
2022-11-21T12:25:15.854Z,5220
2022-11-21T12:26:16.210Z,1736
2022-11-21T12:27:16.130Z,1600
2022-11-21T12:28:16.363Z,1592
2022-11-21T12:29:16.569Z,1668
2022-11-21T12:30:17.219Z,1856
2022-11-21T12:31:18.156Z,2012
2022-11-21T12:32:18.914Z,2152
2022-11-21T12:33:20.787Z,2804
2022-11-21T12:34:19.290Z,1736
2022-11-21T12:35:20.305Z,1412
2022-11-21T12:36:30.692Z,1328
2022-11-21T12:37:31.194Z,1316
2022-11-21T12:38:31.692Z,1456
2022-11-21T12:39:33.037Z,1504
2022-11-21T12:40:32.699Z,2148
2022-11-21T12:41:33.616Z,4820
2022-11-21T12:42:34.563Z,2612
2022-11-21T12:43:35.073Z,3060
2022-11-21T12:44:36.050Z,3832
2022-11-21T12:45:36.681Z,4744
2022-11-21T12:46:37.299Z,4644
2022-11-21T12:47:37.540Z,3028
2022-11-21T12:48:37.761Z,3704
2022-11-21T12:49:39.316Z,3308
2022-11-21T12:50:39.440Z,3520
2022-11-21T12:51:39.722Z,3632
2022-11-21T12:52:40.075Z,4664
2022-11-21T12:53:40.278Z,4828
2022-11-21T12:54:40.609Z,5112
2022-11-21T12:55:46.247Z,4436
2022-11-21T12:56:42.579Z,4212
2022-11-21T12:57:42.518Z,4464
2022-11-21T12:58:43.535Z,5064
2022-11-21T12:59:44.025Z,5044
2022-11-21T13:00:44.400Z,4864
2022-11-21T13:01:46.202Z,5232
2022-11-21T13:02:46.201Z,5384
2022-11-21T13:03:47.988Z,5232
2022-11-21T13:04:47.726Z,5460
2022-11-21T13:05:48.233Z,5056
2022-11-21T13:06:48.352Z,4884
2022-11-21T13:07:49.134Z,5260
2022-11-21T13:08:49.373Z,5340
2022-11-21T13:09:49.308Z,5232
2022-11-21T13:10:49.508Z,5484
2022-11-21T13:11:50.730Z,5568
2022-11-21T13:12:50.658Z,5464
2022-11-21T13:13:52.941Z,5316
2022-11-21T13:14:53.639Z,5428
2022-11-21T13:15:53.144Z,5300
2022-11-21T13:16:54.460Z,4724
2022-11-21T13:17:53.609Z,5192
2022-11-21T13:18:53.994Z,5320
2022-11-21T13:19:54.206Z,5196
2022-11-21T13:20:55.453Z,4908
2022-11-21T13:21:55.757Z,4796
2022-11-21T13:22:56.293Z,2856
2022-11-21T13:23:56.229Z,4592
2022-11-21T13:24:58.769Z,5208
2022-11-21T13:25:58.801Z,5248
2022-11-21T13:26:58.582Z,5180
2022-11-21T13:27:58.041Z,4736
2022-11-21T13:28:58.880Z,4676
2022-11-21T13:29:59.246Z,3260
2022-11-21T13:31:00.729Z,5096
2022-11-21T13:32:01.114Z,4652
2022-11-21T13:33:02.086Z,4216
2022-11-21T13:34:02.443Z,4288
2022-11-21T13:35:03.653Z,4248
2022-11-21T13:36:04.765Z,3984
2022-11-21T13:37:05.382Z,3724
2022-11-21T13:38:05.329Z,3728
2022-11-21T13:39:06.273Z,3816
2022-11-21T13:40:06.879Z,3792
2022-11-21T13:41:07.529Z,3956
2022-11-21T13:42:08.895Z,4252
2022-11-21T13:43:42.363Z,4320
2022-11-21T13:44:10.229Z,4236
2022-11-21T13:45:11.155Z,4112
2022-11-21T13:46:11.145Z,4212
2022-11-21T13:47:12.341Z,4020
2022-11-21T13:48:12.995Z,3416
2022-11-21T13:49:14.219Z,3296
2022-11-21T13:50:14.309Z,3708
2022-11-21T13:51:15.288Z,3664
2022-11-21T13:52:16.300Z,2644
2022-11-21T13:53:16.815Z,3288
2022-11-21T13:54:16.723Z,3432
2022-11-21T13:55:17.229Z,3212
2022-11-21T13:56:17.439Z,3144
2022-11-21T13:57:18.158Z,3540
2022-11-21T13:58:19.101Z,3660
2022-11-21T13:59:20.021Z,3620
2022-11-21T14:00:26.033Z,3580
2022-11-21T14:01:21.875Z,3576
2022-11-21T14:02:22.223Z,3420
2022-11-21T14:03:22.179Z,3196
2022-11-21T14:04:22.422Z,3284
2022-11-21T14:05:23.120Z,2988
2022-11-21T14:06:29.649Z,3020
2022-11-21T14:07:26.125Z,3052
2022-11-21T14:08:25.768Z,3056
2022-11-21T14:09:26.336Z,2992
2022-11-21T14:10:26.961Z,2728
2022-11-21T14:11:27.177Z,2276
2022-11-21T14:12:32.835Z,2292
2022-11-21T14:13:29.366Z,2372
2022-11-21T14:14:29.274Z,2280
2022-11-21T14:15:30.223Z,2484
2022-11-21T14:16:31.440Z,2520
2022-11-21T14:17:31.446Z,2464